• Join FlightAware (Why Join?)
  • Login
  • US Flag 
02:06PM EDT


 

Airport Tracker/Info


-or-


 

Live Flight TrackerFlight Track Log ✈ N569TA ✈ 02-May-2013 ✈ KOSH - KHND

Flight Track Log - Related Links

Times and Time Zones

All times are in EDT time to prevent confusion due to time zone crossing. See the N569TA flight status page for this flight to view local times or setup timezone preferences in your user account.

Time Position Orientation Groundspeed Altitude Reporting Facility
EDT Latitude Longitude Course Direction KTS MPH feet Rate Location/Type
03:40PM 43.9394 -88.5794 257° West 238 274 6,300  Level Chicago Center
03:41PM 43.9256 -88.6650 257° West 230 265 9,100 2,700 Climbing Chicago Center
03:42PM 43.9147 -88.7514 260° West 229 264 11,900 2,520 Climbing Chicago Center
03:43PM 43.9011 -88.8397 258° West 234 269 14,400 2,280 Climbing Chicago Center
03:44PM 43.8842 -88.9503 258° West 251 289 16,700 1,800 Climbing Chicago Center
03:45PM 43.8703 -89.0522 259° West 268 308 18,200 1,680 Climbing Chicago Center
03:46PM 43.8506 -89.1764 258° West 283 326 20,400 1,680 Climbing Minneapolis Center
03:47PM 43.8311 -89.3028 258° West 287 330 22,300 1,680 Climbing Minneapolis Center
03:48PM 43.8150 -89.4153 259° West 295 339 24,300 1,740 Climbing Minneapolis Center
03:49PM 43.7975 -89.5269 258° West 296 341 25,900 1,560 Climbing Minneapolis Center
03:50PM 43.7778 -89.6611 259° West 305 351 27,600 1,560 Climbing Minneapolis Center
03:51PM 43.7603 -89.7781 258° West 310 357 29,100 1,440 Climbing Minneapolis Center
03:52PM 43.7428 -89.8936 258° West 307 353 30,600 1,380 Climbing Minneapolis Center
03:54PM 43.7253 -90.0069 258° West 302 348 32,000 1,380 Climbing Minneapolis Center
03:55PM 43.7086 -90.1172 258° West 294 338 33,500 1,440 Climbing Minneapolis Center
03:56PM 43.6894 -90.2253 256° West 286 329 35,000 1,260 Climbing Minneapolis Center
03:57PM 43.6733 -90.3267 258° West 276 318 36,100 1,080 Climbing Minneapolis Center
03:58PM 43.6553 -90.4472 258° West 271 312 37,300 900 Climbing Minneapolis Center
03:59PM 43.6383 -90.5478 257° West 271 312 38,000 600 Climbing Minneapolis Center
04:00PM 43.6231 -90.6514 259° West 275 316 38,600 540 Climbing Minneapolis Center
04:01PM 43.6061 -90.7569 258° West 282 325 39,200 600 Climbing Minneapolis Center
04:02PM 43.5853 -90.8853 257° West 287 330 39,900 360 Climbing Minneapolis Center
04:03PM 43.5686 -90.9922 258° West 289 333 40,000  Climbing Minneapolis Center
04:04PM 43.5489 -91.1056 257° West 300 345 40,000  Level Minneapolis Center
04:05PM 43.5303 -91.2231 258° West 312 359 40,000  Level Minneapolis Center
04:06PM 43.5106 -91.3439 257° West 321 369 40,000  Level Minneapolis Center
04:07PM 43.4858 -91.4917 257° West 330 380 40,000  Level Minneapolis Center
04:08PM 43.4642 -91.6142 256° West 333 383 40,000  Level Minneapolis Center
04:09PM 43.4433 -91.7389 257° West 336 387 40,000  Level Minneapolis Center
04:10PM 43.4228 -91.8622 257° West 336 387 40,000  Level Minneapolis Center
04:11PM 43.4000 -91.9867 256° West 337 388 40,000  Level Minneapolis Center
04:12PM 43.3742 -92.1342 257° West 336 387 40,000  Level Minneapolis Center
04:13PM 43.3525 -92.2569 256° West 336 387 40,000  Level Minneapolis Center
04:14PM 43.3308 -92.3822 257° West 339 390 40,000  Level Minneapolis Center
04:15PM 43.3083 -92.5072 256° West 340 391 40,000  Level Minneapolis Center
04:16PM 43.2867 -92.6311 257° West 339 390 40,000  Level Minneapolis Center
04:17PM 43.2589 -92.7817 256° West 343 395 40,000  Level Minneapolis Center
04:18PM 43.2367 -92.9072 256° West 343 395 40,000  Level Minneapolis Center
04:19PM 43.2147 -93.0308 256° West 340 391 40,000  Level Minneapolis Center
04:20PM 43.1906 -93.1569 255° West 342 394 40,000  Level Minneapolis Center
04:21PM 43.1636 -93.3064 256° West 340 391 40,000  Level Minneapolis Center
04:22PM 43.1400 -93.4317 256° West 343 395 40,000  Level Minneapolis Center
04:24PM 43.1156 -93.5575 255° West 345 397 40,000  Level Minneapolis Center
04:25PM 43.0908 -93.6847 255° West 347 399 40,000  Level Minneapolis Center
04:26PM 43.0672 -93.8119 256° West 347 399 40,000  Level Minneapolis Center
04:27PM 43.0383 -93.9639 255° West 347 399 40,000  Level Minneapolis Center
04:28PM 43.0133 -94.0919 255° West 350 403 40,000  Level Minneapolis Center
04:29PM 42.9889 -94.2192 255° West 351 404 40,000  Level Minneapolis Center
04:30PM 42.9653 -94.3469 256° West 350 403 40,000  Level Minneapolis Center
04:31PM 42.9389 -94.4736 254° West 350 403 40,000  Level Minneapolis Center
04:32PM 42.9072 -94.6269 254° West 350 403 40,000  Level Minneapolis Center
04:33PM 42.8831 -94.7519 255° West 345 397 40,000  Level Minneapolis Center
04:34PM 42.8575 -94.8778 255° West 344 396 40,000  Level Minneapolis Center
04:35PM 42.8314 -95.0039 254° West 346 398 40,000  Level Minneapolis Center
04:36PM 42.8056 -95.1292 254° West 344 396 40,000  Level Minneapolis Center
04:37PM 42.7792 -95.2567 254° West 346 398 40,000  Level Minneapolis Center
04:38PM 42.7489 -95.4094 255° West 349 402 40,000  Level Minneapolis Center
04:39PM 42.7233 -95.5333 254° West 350 403 40,000  Level Minneapolis Center
04:41PM 42.6816 -95.7264 254° West  Level FlightAware Approximate
04:44PM 42.5839 -96.1883 253° West 348 400 40,000  Level Minneapolis Center
04:46PM 42.5469 -96.3594 254° West  Level FlightAware Approximate
04:48PM 42.4832 -96.6351 254° West  Level FlightAware Approximate
04:49PM 42.4548 -96.7647 253° West  Level FlightAware Approximate
04:53PM 42.3460 -97.2651 254° West  Level FlightAware Approximate
04:54PM 42.3167 -97.3940 253° West  Level FlightAware Approximate
04:55PM 42.2873 -97.5228 253° West  Level FlightAware Approximate
04:56PM 42.2577 -97.6515 253° West  Level FlightAware Approximate
04:57PM 42.2280 -97.7801 253° West  Level FlightAware Approximate
04:57PM 42.2342 -97.7494 252° West 363 418 40,000  Level Denver Center
04:58PM 42.1981 -97.9085 253° West  Level FlightAware Approximate
04:58PM 42.2039 -97.8797 253° West 367 422 40,000  Level Denver Center
04:59PM 42.1681 -98.0368 253° West  Level FlightAware Approximate
04:59PM 42.1739 -98.0108 253° West 367 422 40,000  Level Denver Center
05:00PM 42.1380 -98.1650 252° West  Level FlightAware Approximate
05:00PM 42.1419 -98.1425 252° West 369 425 40,000  Level Denver Center
05:01PM 42.1077 -98.2931 252° West  Level FlightAware Approximate
05:01PM 42.1111 -98.2758 253° West 372 428 40,000  Level Denver Center
05:02PM 42.0773 -98.4210 252° West  Level FlightAware Approximate
05:02PM 42.0736 -98.4358 253° West 374 430 40,000  Level Denver Center
05:03PM 42.0422 -98.5675 252° West 373 429 40,000  Level Denver Center
05:04PM 42.0097 -98.6992 252° West 372 428 40,000  Level Denver Center
05:05PM 41.9775 -98.8331 252° West 376 433 40,000  Level Denver Center
05:06PM 41.9458 -98.9628 252° West 368 423 40,000  Level Denver Center
05:07PM 41.9139 -99.0950 252° West 372 428 40,000  Level Denver Center
05:08PM 41.8756 -99.2511 252° West 368 423 40,000  Level Denver Center
05:09PM 41.8428 -99.3808 251° West 368 423 40,000  Level Denver Center
05:10PM 41.8106 -99.5128 252° West 371 427 40,000  Level Denver Center
05:11PM 41.7781 -99.6417 251° West 368 423 40,000  Level Denver Center
05:12PM 41.7406 -99.7914 251° West 371 427 40,000  Level Denver Center
05:13PM 41.7089 -99.9164 251° West 371 427 40,000  Level Denver Center
05:14PM 41.6714 -100.0606 251° West 369 425 40,000  Level Denver Center
05:15PM 41.6400 -100.1844 251° West 370 426 40,000  Level Denver Center
05:16PM 41.6031 -100.3297 251° West 370 426 40,000  Level Denver Center
05:17PM 41.5703 -100.4536 251° West 369 425 40,000  Level Denver Center
05:18PM 41.5331 -100.5983 251° West 370 426 40,000  Level Denver Center
05:19PM 41.5006 -100.7219 251° West 371 427 40,000  Level Denver Center
05:21PM 41.4622 -100.8661 251° West 371 427 40,000  Level Denver Center
05:22PM 41.4239 -101.0083 250° West 368 423 40,000  Level Denver Center
05:23PM 41.3850 -101.1528 250° West 372 428 40,000  Level Denver Center
05:24PM 41.3531 -101.2753 251° West 369 425 40,000  Level Denver Center
05:25PM 41.3150 -101.4186 251° West 369 425 40,000  Level Denver Center
05:26PM 41.2808 -101.5414 250° West 371 427 40,000  Level Denver Center
05:27PM 41.2419 -101.6844 250° West 369 425 40,000  Level Denver Center
05:28PM 41.2083 -101.8089 250° West 374 430 40,000  Level Denver Center
05:29PM 41.1689 -101.9536 250° West 375 432 40,000  Level Denver Center
05:30PM 41.1331 -102.0769 249° West 375 432 40,000  Level Denver Center
05:31PM 41.0925 -102.2217 250° West 376 433 40,000  Level Denver Center
05:32PM 41.0586 -102.3453 250° West 375 432 40,000  Level Denver Center
05:33PM 41.0169 -102.4889 249° West 375 432 40,000  Level Denver Center
05:34PM 40.9833 -102.6119 250° West 371 427 40,000  Level Denver Center
05:35PM 40.9431 -102.7550 250° West 371 427 40,000  Level Denver Center
05:36PM 40.9064 -102.8786 249° West 376 433 40,000  Level Denver Center
05:37PM 40.8653 -103.0244 250° West 376 433 40,000  Level Denver Center
05:38PM 40.8275 -103.1536 249° West 375 432 40,000  Level Denver Center
05:39PM 40.7894 -103.2847 249° West 379 436 40,000  Level Denver Center
05:40PM 40.7511 -103.4161 249° West 380 437 40,000  Level Denver Center
05:41PM 40.7128 -103.5461 249° West 379 436 40,000  Level Denver Center
05:42PM 40.6750 -103.6764 249° West 378 435 40,000  Level Denver Center
05:43PM 40.6358 -103.8081 249° West 383 441 40,000  Level Denver Center
05:44PM 40.5903 -103.9617 249° West 384 442 40,000  Level Denver Center
05:45PM 40.5500 -104.0936 248° West 389 448 40,000  Level Denver Center
05:46PM 40.5103 -104.2275 249° West 390 449 40,000  Level Denver Center
05:47PM 40.4717 -104.3592 249° West 386 444 40,000  Level Denver Center
05:48PM 40.4314 -104.4906 248° West 385 443 40,000  Level Denver Center
05:49PM 40.3914 -104.6214 248° West 383 441 40,000  Level Denver Center
05:51PM 40.3514 -104.7489 248° West 377 434 40,000  Level Denver Center
05:52PM 40.3181 -104.8586 248° West 383 441 40,000  Level Denver Center
05:53PM 40.2647 -105.0311 248° West 381 438 40,000  Level Denver Center
05:54PM 40.2239 -105.1597 247° West 381 438 40,000  Level Denver Center
05:55PM 40.1831 -105.2917 248° West 388 447 40,000  Level Denver Center
05:56PM 40.1422 -105.4228 248° West 388 447 40,000  Level Denver Center
05:57PM 40.0864 -105.5956 247° West 385 443 40,000  Level Denver Center
05:58PM 40.0456 -105.7242 248° West 382 440 40,000  Level Denver Center
05:59PM 40.0050 -105.8481 247° West 363 418 40,000  Level Denver Center
06:00PM 39.9636 -105.9772 247° West 380 437 40,000  Level Denver Center
06:01PM 39.9225 -106.1039 247° West 378 435 40,000  Level Denver Center
06:02PM 39.8814 -106.2303 247° West 376 433 40,000  Level Denver Center
06:03PM 39.8333 -106.3789 247° West 379 436 40,000  Level Denver Center
06:04PM 39.7922 -106.5053 247° West 377 434 40,000  Level Denver Center
06:05PM 39.7533 -106.6272 248° West 381 438 40,000  Level Denver Center
06:06PM 39.7119 -106.7522 247° West 380 437 40,000  Level Denver Center
06:08PM 39.6294 -107.0025 247° West 379 436 40,000  Level Salt Lake Center
06:09PM 39.5819 -107.1425 246° West 380 437 40,000  Level Salt Lake Center
06:10PM 39.5411 -107.2619 246° West 378 435 40,000  Level Salt Lake Center
06:11PM 39.5011 -107.3814 247° West 377 434 40,000  Level Salt Lake Center
06:12PM 39.4531 -107.5231 246° West 382 440 40,000  Level Salt Lake Center
06:13PM 39.4119 -107.6461 247° West 386 444 40,000  Level Salt Lake Center
06:14PM 39.3622 -107.7889 246° West 389 448 40,000  Level Salt Lake Center
06:15PM 39.3206 -107.9122 246° West 390 449 40,000  Level Salt Lake Center
06:16PM 39.2772 -108.0367 246° West 394 453 40,000  Level Salt Lake Center
06:17PM 39.2275 -108.1800 246° West 391 450 40,000  Level Salt Lake Center
06:19PM 39.1853 -108.3039 246° West 391 450 40,000  Level Salt Lake Center
06:20PM 39.1272 -108.4661 245° Southwest 388 447 40,000  Level Denver Center
06:21PM 39.0844 -108.5872 246° West 386 444 40,000  Level Denver Center
06:22PM 39.0347 -108.7294 246° West 387 445 40,000  Level Denver Center
06:23PM 38.9908 -108.8494 245° Southwest 387 445 40,000  Level Denver Center
06:24PM 38.9403 -108.9914 245° Southwest 390 449 40,000  Level Denver Center
06:25PM 38.8975 -109.1119 246° West 389 448 40,000  Level Denver Center
06:26PM 38.8550 -109.2328 246° West 387 445 40,000  Level Denver Center
06:27PM 38.8033 -109.3722 245° Southwest 386 444 40,000  Level Denver Center
06:28PM 38.7611 -109.4897 245° Southwest 379 436 40,000  Level Denver Center
06:29PM 38.7114 -109.6244 245° Southwest 371 427 40,000  Level Denver Center
06:30PM 38.6686 -109.7436 245° Southwest 381 438 40,000  Level Denver Center
06:31PM 38.6072 -109.8736 239° Southwest 384 442 40,000  Level Denver Center
06:32PM 38.5353 -109.9972 233° Southwest 388 447 40,000  Level Denver Center
06:33PM 38.4697 -110.1236 237° Southwest 383 441 40,000  Level Denver Center
06:34PM 38.4317 -110.1964 236° Southwest 383 441 40,000  Level Salt Lake Center
06:35PM 38.3711 -110.3006 233° Southwest 382 440 40,000  Level Salt Lake Center
06:35PM 38.3417 -110.3536 235° Southwest 383 441 40,000  Level Denver Center
06:36PM 38.2828 -110.4592 235° Southwest 382 440 40,000  Level Denver Center
06:37PM 38.2150 -110.5833 235° Southwest 382 440 40,000  Level Denver Center
06:38PM 38.1769 -110.6550 236° Southwest 382 440 40,000 -300 Level Salt Lake Center
06:39PM 38.1186 -110.7608 235° Southwest 381 438 39,600 -840 Descending Salt Lake Center
06:40PM 38.0869 -110.8139 233° Southwest 386 444 38,800 -1,740 Descending Denver Center
06:41PM 38.0206 -110.9367 236° Southwest 395 455 37,100 -1,620 Descending Denver Center
06:42PM 37.9600 -111.0442 234° Southwest 380 437 35,500 -1,500 Descending Denver Center
06:43PM 37.8964 -111.1581 235° Southwest 393 452 34,100 -960 Descending Denver Center
06:43PM 37.8564 -111.2286 234° Southwest 402 463 34,000 -120 Descending Salt Lake Center
06:44PM 37.7900 -111.3447 234° Southwest 407 468 34,000 -540 Level Salt Lake Center
06:45PM 37.7253 -111.4589 234° Southwest 402 463 33,000 -1,020 Descending Salt Lake Center
06:46PM 37.6606 -111.5750 235° Southwest 403 464 32,000 -540 Descending Salt Lake Center
06:47PM 37.5942 -111.6881 233° Southwest 400 460 32,000  Level Denver Center
06:48PM 37.5300 -111.8022 235° Southwest 399 459 32,000  Level Denver Center
06:49PM 37.4647 -111.9156 234° Southwest 398 458 32,000  Level Salt Lake Center
06:50PM 37.3881 -112.0486 234° Southwest 392 451 32,000  Level Salt Lake Center
06:51PM 37.3350 -112.1378 233° Southwest 390 449 32,000  Level Los Angeles Center
06:52PM 37.2706 -112.2478 234° Southwest 389 448 32,000 -360 Level Los Angeles Center
06:53PM 37.2061 -112.3589 234° Southwest 391 450 31,300 -960 Descending Los Angeles Center
06:54PM 37.1522 -112.4500 233° Southwest 399 459 30,100 -1,680 Descending Los Angeles Center
06:55PM 37.0583 -112.6108 234° Southwest 402 463 27,900 -1,860 Descending Los Angeles Center
06:56PM 36.9942 -112.7189 233° Southwest 388 447 26,300 -1,800 Descending Los Angeles Center
06:58PM 36.9311 -112.8269 234° Southwest 384 442 24,200 -2,220 Descending Los Angeles Center
06:59PM 36.8681 -112.9317 233° Southwest 378 435 21,800 -2,100 Descending Los Angeles Center
07:00PM 36.8083 -113.0342 234° Southwest 369 425 19,900 -1,500 Descending Los Angeles Center
07:01PM 36.7503 -113.1311 233° Southwest 356 410 18,700 -1,020 Descending Los Angeles Center
07:02PM 36.6997 -113.2347 239° Southwest 351 404 17,900 -600 Descending Los Angeles Center
07:03PM 36.6603 -113.3692 250° West 343 395 17,500 -540 Descending Los Angeles Center
07:04PM 36.6203 -113.4756 245° Southwest 341 392 16,900 -540 Descending Los Angeles Center
07:05PM 36.5822 -113.5828 246° West 340 391 16,400 -480 Descending Los Angeles Center
07:06PM 36.5444 -113.6897 246° West 339 390 15,900 -480 Descending Los Angeles Center
07:07PM 36.5067 -113.7972 246° West 339 390 15,400 -540 Descending Los Angeles Center
07:08PM 36.4692 -113.9047 247° West 336 387 14,900 -600 Descending Los Angeles Center
07:09PM 36.4278 -114.0239 247° West 331 381 14,300 -600 Descending Los Angeles Center
07:10PM 36.3983 -114.1036 245° Southwest 329 379 13,900 -600 Descending Los Angeles Center
07:10PM 36.3861 -114.1344 244° Southwest 331 381 13,700 -720 Descending Los Angeles Center
07:11PM 36.3639 -114.2011 248° West 325 374 13,200 -720 Descending Los Angeles Center
07:11PM 36.3489 -114.2319 239° Southwest 315 362 13,000 -240 Descending Los Angeles Center
07:11PM 36.3325 -114.2922 251° West 302 348 13,000  Level Los Angeles Center
07:12PM 36.3147 -114.3264 237° Southwest 303 349 13,000 60 Level Los Angeles Center
07:13PM 36.2781 -114.3778 228° Southwest 323 372 13,100 60 Climbing Los Angeles Center
07:13PM 36.2489 -114.4042 216° Southwest 322 371 13,100 -480 Level Los Angeles Center
07:13PM 36.2117 -114.4297 209° Southwest 322 371 12,700 -1,020 Descending Los Angeles Center
07:14PM 36.1689 -114.4414 192° South 319 367 12,100 -600 Descending Los Angeles Center
07:15PM 36.1261 -114.4722 210° Southwest 305 351 12,100 -600 Level Los Angeles Center
07:15PM 36.0942 -114.4886 203° Southwest 303 349 11,500 -1,680 Descending Los Angeles Center
07:16PM 36.0458 -114.5206 208° Southwest 310 357 10,400 -1,920 Descending Los Angeles Center
07:16PM 36.0006 -114.5472 205° Southwest 311 358 9,500 -1,560 Descending Los Angeles Center
07:16PM 35.9844 -114.5653 222° Southwest 306 352 9,000 -1,380 Descending Los Angeles Center
07:17PM 35.9533 -114.6281 239° Southwest 301 346 8,100 -780 Descending Los Angeles Center
07:18PM 35.9353 -114.6750 245° Southwest 296 341 8,100  Level Los Angeles Center
07:18PM 35.9183 -114.7150 242° Southwest 289 333 8,100 -660 Level Los Angeles Center
07:19PM 35.9000 -114.7692 247° West 254 292 7,400 -1,020 Descending Los Angeles Center
07:19PM 35.8886 -114.7964 243° Southwest 276 318 7,100 -660 Descending Los Angeles Center
07:20PM 35.8747 -114.8308 244° Southwest 251 289 6,900 -120 Descending Los Angeles Center
07:20PM 35.8575 -114.8689 241° Southwest 260 299 7,000 240 Climbing Los Angeles Center
07:21PM 35.8364 -114.9019 232° Southwest 254 292 7,200 1,440 Climbing Los Angeles Center
07:21PM 35.8139 -114.9378 232° Southwest 253 291 8,500 1,320 Climbing Los Angeles Center
07:22PM 35.7919 -114.9753 234° Southwest 267 307 8,600  Climbing Los Angeles Center
07:22PM 35.7597 -115.0253 232° Southwest 258 297 8,500  Descending Los Angeles Center
07:23PM 35.7475 -115.0481 237° Southwest 242 278 8,600 -120 Climbing Los Angeles Center
07:23PM 35.7194 -115.0947 233° Southwest 257 296 8,400 -420 Descending Los Angeles Center
07:24PM 35.7169 -115.1350 266° West 248 285 8,100 -420 Descending Los Angeles Center
07:24PM 35.7136 -115.1761 264° West 249 287 8,000 -780 Descending Los Angeles Center
07:25PM 35.7258 -115.1958 307° West 231 266 7,500 -1,680 Descending Los Angeles Center
07:26PM 35.7794 -115.1942 North 209 241 6,000 -1,200 Descending Los Angeles Center
07:27PM 35.8303 -115.1803 12° North 208 239 5,100 -720 Descending Los Angeles Center
07:28PM 35.8747 -115.1656 15° North 169 194 4,600 -780 Descending Los Angeles Center
07:29PM 35.9228 -115.1389 24° Northeast 156 180 3,500 -900 Descending Los Angeles Center
07:30PM 35.9503 -115.1353 North 129 148 2,800 -900 Descending Los Angeles Center
07:32PM 35.9667 -115.1333 11° North  Level FlightAware Approximate